createdAt,value
2023-10-27T00:02:16.569Z,33.08
2023-10-27T00:04:43.976Z,33.03
2023-10-27T00:07:11.310Z,32.05
2023-10-27T00:09:39.270Z,35.88
2023-10-27T00:12:06.977Z,35.33
2023-10-27T00:14:34.976Z,35.80
2023-10-27T00:17:02.282Z,33.38
2023-10-27T00:19:29.578Z,30.10
2023-10-27T00:21:56.900Z,27.85
2023-10-27T00:24:25.436Z,28.60
2023-10-27T00:26:52.763Z,26.13
2023-10-27T00:29:20.008Z,22.73
2023-10-27T00:31:47.219Z,21.45
2023-10-27T00:34:14.573Z,24.70
2023-10-27T00:36:41.808Z,25.70
2023-10-27T00:39:08.988Z,21.42
2023-10-27T00:41:36.271Z,17.55
2023-10-27T00:44:03.448Z,18.25
2023-10-27T00:46:30.727Z,23.60
2023-10-27T00:48:58.372Z,23.05
2023-10-27T00:51:25.628Z,27.10
2023-10-27T00:53:52.812Z,43.05
2023-10-27T00:56:20.082Z,27.65
2023-10-27T00:58:47.341Z,40.33
2023-10-27T01:01:16.538Z,45.08
2023-10-27T01:03:43.821Z,42.58
2023-10-27T01:06:11.103Z,38.80
2023-10-27T01:08:38.280Z,37.75
2023-10-27T01:11:05.513Z,40.10
2023-10-27T01:13:32.754Z,63.35
2023-10-27T01:16:00.573Z,62.03
2023-10-27T01:18:27.917Z,88.15
2023-10-27T01:20:55.123Z,49.88
2023-10-27T01:23:22.310Z,50.22
2023-10-27T01:25:49.558Z,57.15
2023-10-27T01:28:16.820Z,48.53
2023-10-27T01:30:44.012Z,94.30
2023-10-27T01:33:11.243Z,71.65
2023-10-27T01:35:38.677Z,60.58
2023-10-27T01:38:05.950Z,54.60
2023-10-27T01:40:33.221Z,75.07
2023-10-27T01:43:00.503Z,80.28
2023-10-27T01:45:27.951Z,74.60
2023-10-27T01:47:55.246Z,72.15
2023-10-27T01:50:22.443Z,69.90
2023-10-27T01:52:49.621Z,62.13
2023-10-27T01:55:16.906Z,41.15
2023-10-27T01:57:44.469Z,24.33
2023-10-27T02:00:13.383Z,55.40
2023-10-27T02:02:40.658Z,52.75
2023-10-27T02:05:08.804Z,53.40
2023-10-27T02:07:35.975Z,56.85
2023-10-27T02:10:03.260Z,47.80
2023-10-27T02:12:30.456Z,41.40
2023-10-27T02:14:57.623Z,31.65
2023-10-27T02:17:24.852Z,22.58
2023-10-27T02:19:52.081Z,28.75
2023-10-27T02:22:19.413Z,39.70
2023-10-27T02:24:46.664Z,42.75
2023-10-27T02:27:13.852Z,44.35
2023-10-27T02:29:41.068Z,56.75
2023-10-27T02:32:08.277Z,50.70
2023-10-27T02:34:35.469Z,43.58
2023-10-27T02:37:02.744Z,34.75
2023-10-27T02:39:29.978Z,20.80
2023-10-27T02:41:57.162Z,22.42
2023-10-27T02:44:24.336Z,16.90
2023-10-27T02:46:51.572Z,15.45
2023-10-27T02:49:18.792Z,21.02
2023-10-27T02:51:46.141Z,12.32
2023-10-27T02:54:13.349Z,12.15
2023-10-27T02:56:40.535Z,14.90
2023-10-27T02:59:09.888Z,17.83
2023-10-27T03:01:37.118Z,15.30
2023-10-27T03:04:04.489Z,19.65
2023-10-27T03:06:31.738Z,18.70
2023-10-27T03:08:58.931Z,15.45
2023-10-27T03:11:26.110Z,16.52
2023-10-27T03:13:53.283Z,18.75
2023-10-27T03:16:20.529Z,23.77
2023-10-27T03:18:47.771Z,23.70
2023-10-27T03:21:15.039Z,42.75
2023-10-27T03:23:42.250Z,48.05
2023-10-27T03:26:10.195Z,27.13
2023-10-27T03:28:37.456Z,31.45
2023-10-27T03:31:04.855Z,45.53
2023-10-27T03:33:32.068Z,38.50
2023-10-27T03:35:59.239Z,30.92
2023-10-27T03:38:27.190Z,29.17
2023-10-27T03:40:55.456Z,30.60
2023-10-27T03:43:23.023Z,18.80
2023-10-27T03:45:50.352Z,25.92
2023-10-27T03:48:18.073Z,30.77
2023-10-27T03:50:45.271Z,36.97
2023-10-27T03:53:12.518Z,29.50
2023-10-27T03:55:39.795Z,25.83
2023-10-27T03:58:16.381Z,44.42
2023-10-27T04:00:44.116Z,41.38
2023-10-27T04:03:11.829Z,42.83
2023-10-27T04:05:39.255Z,41.95
2023-10-27T04:08:06.495Z,39.47
2023-10-27T04:10:34.326Z,48.25
2023-10-27T04:13:01.579Z,43.33
2023-10-27T04:15:29.217Z,37.60
2023-10-27T04:17:56.697Z,43.05
2023-10-27T04:20:23.957Z,39.28
2023-10-27T04:22:51.137Z,37.08
2023-10-27T04:25:18.398Z,57.00
2023-10-27T04:27:45.638Z,36.45
2023-10-27T04:30:14.438Z,36.47
2023-10-27T04:32:41.878Z,34.22
2023-10-27T04:35:11.076Z,33.25
2023-10-27T04:37:38.334Z,30.38
2023-10-27T04:40:05.884Z,42.60
2023-10-27T04:42:33.184Z,49.40
2023-10-27T04:45:00.719Z,52.47
2023-10-27T04:47:27.939Z,60.58
2023-10-27T04:49:55.785Z,61.90
2023-10-27T04:52:23.033Z,60.45
2023-10-27T04:54:50.249Z,53.30
2023-10-27T04:57:17.471Z,59.88
2023-10-27T04:59:44.838Z,47.03
2023-10-27T05:02:12.223Z,53.25
2023-10-27T05:04:39.462Z,44.38
2023-10-27T05:07:07.074Z,38.80
2023-10-27T05:09:34.520Z,35.55
2023-10-27T05:12:01.745Z,37.42
2023-10-27T05:14:28.935Z,37.58
2023-10-27T05:16:56.150Z,36.85
2023-10-27T05:19:23.394Z,37.85
2023-10-27T05:21:50.633Z,32.50
2023-10-27T05:24:17.849Z,35.88
2023-10-27T05:26:45.112Z,42.40
2023-10-27T05:29:13.022Z,39.42
2023-10-27T05:31:41.239Z,30.58
2023-10-27T05:34:08.593Z,36.03
2023-10-27T05:36:36.660Z,29.95
2023-10-27T05:39:03.989Z,24.52
2023-10-27T05:41:31.244Z,22.13
2023-10-27T05:43:58.447Z,23.92
2023-10-27T05:46:25.661Z,25.45
2023-10-27T05:48:53.154Z,36.00
2023-10-27T05:51:20.384Z,27.88
2023-10-27T05:53:49.667Z,28.85
2023-10-27T05:56:16.871Z,33.53
2023-10-27T05:58:44.097Z,40.85
2023-10-27T06:01:11.331Z,32.53
2023-10-27T06:03:38.596Z,32.28
2023-10-27T06:06:05.922Z,25.95
2023-10-27T06:08:36.364Z,21.88
2023-10-27T06:11:03.718Z,19.40
2023-10-27T06:13:30.913Z,25.83
2023-10-27T06:15:58.185Z,32.08
2023-10-27T06:18:25.404Z,25.38
2023-10-27T06:20:52.689Z,22.33
2023-10-27T06:23:19.920Z,15.50
2023-10-27T06:25:47.338Z,18.33
2023-10-27T06:28:14.533Z,20.75
2023-10-27T06:30:41.793Z,18.35
2023-10-27T06:33:09.096Z,23.73
2023-10-27T06:35:36.338Z,15.80
2023-10-27T06:38:03.528Z,15.85
2023-10-27T06:40:30.918Z,18.10
2023-10-27T06:42:58.125Z,16.88
2023-10-27T06:45:25.384Z,21.95
2023-10-27T06:47:52.673Z,20.88
2023-10-27T06:50:19.883Z,27.85
2023-10-27T06:52:47.068Z,28.52
2023-10-27T06:55:14.334Z,30.65
2023-10-27T06:57:41.598Z,26.80
2023-10-27T07:00:09.131Z,26.60
2023-10-27T07:02:49.610Z,27.55
2023-10-27T07:05:24.845Z,29.52
2023-10-27T07:07:52.405Z,30.00
2023-10-27T07:10:19.685Z,27.95
2023-10-27T07:12:47.004Z,34.40
2023-10-27T07:15:14.512Z,35.55
2023-10-27T07:17:44.502Z,27.48
2023-10-27T07:20:12.075Z,22.23
2023-10-27T07:22:39.437Z,21.25
2023-10-27T07:25:06.879Z,27.13
2023-10-27T07:27:34.784Z,25.25
2023-10-27T07:30:02.001Z,26.50
2023-10-27T07:32:29.294Z,22.98
2023-10-27T07:34:56.768Z,25.25
2023-10-27T07:37:24.785Z,21.42
2023-10-27T07:39:52.153Z,23.10
2023-10-27T07:42:19.363Z,25.90
2023-10-27T07:44:46.766Z,24.90
2023-10-27T07:47:15.619Z,24.75
2023-10-27T07:49:42.922Z,26.88
2023-10-27T07:52:10.461Z,26.48
2023-10-27T07:54:38.356Z,27.92
2023-10-27T07:57:06.227Z,21.33
2023-10-27T07:59:33.509Z,21.73
2023-10-27T08:02:01.738Z,19.00
2023-10-27T08:04:29.651Z,17.58
2023-10-27T08:06:57.786Z,16.65
2023-10-27T08:09:25.199Z,15.70
2023-10-27T08:11:54.517Z,16.95
2023-10-27T08:14:21.732Z,18.25
2023-10-27T08:16:48.987Z,20.80
2023-10-27T08:19:16.209Z,17.00
2023-10-27T08:21:45.120Z,17.75
2023-10-27T08:24:13.979Z,19.33
2023-10-27T08:26:41.251Z,21.58
2023-10-27T08:29:08.530Z,23.58
2023-10-27T08:31:35.752Z,24.73
2023-10-27T08:34:05.293Z,21.80
2023-10-27T08:36:32.649Z,14.95
2023-10-27T08:38:59.833Z,13.75
2023-10-27T08:41:27.039Z,12.15
2023-10-27T08:43:54.479Z,12.40
2023-10-27T08:46:22.034Z,10.63
2023-10-27T08:48:49.620Z,11.25
2023-10-27T08:51:17.003Z,13.02
2023-10-27T08:53:44.896Z,14.13
2023-10-27T08:56:15.208Z,18.10
2023-10-27T08:58:43.402Z,18.35
2023-10-27T09:01:10.636Z,22.60
2023-10-27T09:03:37.850Z,23.92
2023-10-27T09:06:05.504Z,29.33
2023-10-27T09:08:33.406Z,20.75
2023-10-27T09:11:00.905Z,23.42
2023-10-27T09:13:28.259Z,20.55
2023-10-27T09:15:55.821Z,24.17
2023-10-27T09:18:39.159Z,26.02
2023-10-27T09:21:07.300Z,22.08
2023-10-27T09:23:47.389Z,24.38
2023-10-27T09:26:14.615Z,24.00
2023-10-27T09:28:41.860Z,26.70
2023-10-27T09:31:09.129Z,24.38
2023-10-27T09:33:36.484Z,22.73
2023-10-27T09:36:04.218Z,22.35
2023-10-27T09:38:31.474Z,22.48
2023-10-27T09:40:58.718Z,26.63
2023-10-27T09:43:26.096Z,29.00
2023-10-27T09:45:57.226Z,21.63
2023-10-27T09:48:28.959Z,28.08
2023-10-27T09:51:01.417Z,20.13
2023-10-27T09:53:29.599Z,20.13
2023-10-27T09:55:58.657Z,23.48
2023-10-27T09:58:26.976Z,25.27
2023-10-27T10:00:54.167Z,26.10
2023-10-27T10:03:24.611Z,26.50
2023-10-27T10:06:12.211Z,25.95
2023-10-27T10:08:39.770Z,26.88
2023-10-27T10:11:14.351Z,25.70
2023-10-27T10:13:41.647Z,26.85
2023-10-27T10:16:09.948Z,23.98
2023-10-27T10:18:37.330Z,21.42
2023-10-27T10:21:04.614Z,18.92
2023-10-27T10:23:45.789Z,20.00
2023-10-27T10:26:13.009Z,21.85
2023-10-27T10:28:42.200Z,25.20
2023-10-27T10:31:09.566Z,24.67
2023-10-27T10:33:36.994Z,27.35
2023-10-27T10:36:13.425Z,24.75
2023-10-27T10:38:41.350Z,48.60
2023-10-27T10:41:08.548Z,37.08
2023-10-27T10:43:37.652Z,55.78
2023-10-27T10:46:05.554Z,40.55
2023-10-27T10:48:33.697Z,39.90
2023-10-27T10:51:19.345Z,40.90
2023-10-27T10:53:54.068Z,38.70
2023-10-27T10:56:21.310Z,37.45
2023-10-27T10:58:48.591Z,45.17
2023-10-27T11:01:19.246Z,37.15
2023-10-27T11:03:47.378Z,39.97
2023-10-27T11:06:14.956Z,43.95
2023-10-27T11:08:42.249Z,57.72
2023-10-27T11:11:10.495Z,64.50
2023-10-27T11:13:58.628Z,61.35
2023-10-27T11:16:26.236Z,60.88
2023-10-27T11:18:58.576Z,45.58
2023-10-27T11:21:26.083Z,25.38
2023-10-27T11:23:56.291Z,20.60
2023-10-27T11:26:26.892Z,25.90
2023-10-27T11:28:57.037Z,20.05
2023-10-27T11:31:24.286Z,16.05
2023-10-27T11:34:07.482Z,17.35
2023-10-27T11:36:36.768Z,18.38
2023-10-27T11:39:14.762Z,24.52
2023-10-27T11:41:50.106Z,26.98
2023-10-27T11:44:17.731Z,32.75
2023-10-27T11:46:51.424Z,59.55
2023-10-27T11:49:18.828Z,74.20
2023-10-27T11:51:46.378Z,91.32
2023-10-27T11:54:13.832Z,41.88
2023-10-27T11:56:41.123Z,67.60
2023-10-27T11:59:08.790Z,40.05
2023-10-27T12:01:37.187Z,90.63
2023-10-27T12:04:05.455Z,234.25
2023-10-27T12:06:32.636Z,115.32
2023-10-27T12:08:59.817Z,54.20
2023-10-27T12:11:29.076Z,48.42
2023-10-27T12:13:56.353Z,55.85
2023-10-27T12:16:28.630Z,35.97
2023-10-27T12:18:56.463Z,31.45
2023-10-27T12:21:27.245Z,13.65
2023-10-27T12:23:54.698Z,17.55
2023-10-27T12:26:22.280Z,15.50
2023-10-27T12:28:52.484Z,20.10
2023-10-27T12:31:20.960Z,18.00
2023-10-27T12:33:48.277Z,25.17
2023-10-27T12:36:15.569Z,11.77
2023-10-27T12:38:42.747Z,10.07
2023-10-27T12:41:10.914Z,8.90
2023-10-27T12:43:38.348Z,7.60
2023-10-27T12:46:06.188Z,4.72
2023-10-27T12:48:33.959Z,6.45
2023-10-27T12:51:01.411Z,9.85
2023-10-27T12:53:28.683Z,4.93
2023-10-27T12:55:56.362Z,4.75
2023-10-27T12:58:23.864Z,5.60
2023-10-27T13:00:51.121Z,6.03
2023-10-27T13:03:18.579Z,5.85
2023-10-27T13:05:45.932Z,5.07
2023-10-27T13:08:13.818Z,6.70
2023-10-27T13:10:41.339Z,6.93
2023-10-27T13:13:11.089Z,6.32
2023-10-27T13:15:38.478Z,6.80
2023-10-27T13:18:05.959Z,6.40
2023-10-27T13:20:33.694Z,6.70
2023-10-27T13:23:01.036Z,18.70
2023-10-27T13:25:28.267Z,17.33
2023-10-27T13:27:55.480Z,15.13
2023-10-27T13:30:24.297Z,11.95
2023-10-27T13:32:51.889Z,8.20
2023-10-27T13:35:23.487Z,9.23
2023-10-27T13:37:54.571Z,7.10
2023-10-27T13:40:22.244Z,7.18
2023-10-27T13:42:49.556Z,9.75
2023-10-27T13:45:17.117Z,6.78
2023-10-27T13:47:46.228Z,5.60
2023-10-27T13:50:13.952Z,6.80
2023-10-27T13:52:41.506Z,9.02
2023-10-27T13:55:10.322Z,7.63
2023-10-27T13:57:37.767Z,7.40
2023-10-27T14:00:10.699Z,6.68
2023-10-27T14:02:38.422Z,6.00
2023-10-27T14:05:05.976Z,5.95
2023-10-27T14:07:33.438Z,5.10
2023-10-27T14:10:00.915Z,6.32
2023-10-27T14:12:28.416Z,8.52
2023-10-27T14:14:55.686Z,17.40
2023-10-27T14:17:22.910Z,14.50
2023-10-27T14:19:52.564Z,6.00
2023-10-27T14:22:19.895Z,9.48
2023-10-27T14:24:48.379Z,8.93
2023-10-27T14:27:17.065Z,5.80
2023-10-27T14:29:44.902Z,8.73
2023-10-27T14:32:12.099Z,4.35
2023-10-27T14:34:41.592Z,8.65
2023-10-27T14:37:09.367Z,7.30
2023-10-27T14:39:40.416Z,7.40
2023-10-27T14:42:07.726Z,8.25
2023-10-27T14:44:35.290Z,4.63
2023-10-27T14:47:02.477Z,6.60
2023-10-27T14:49:29.691Z,7.22
2023-10-27T14:51:56.950Z,11.98
2023-10-27T14:54:24.226Z,8.15
2023-10-27T14:56:51.445Z,9.88
2023-10-27T14:59:18.760Z,11.18
2023-10-27T15:01:47.963Z,12.35
2023-10-27T15:04:16.393Z,15.20
2023-10-27T15:06:45.734Z,10.68
2023-10-27T15:09:14.901Z,11.70
2023-10-27T15:11:42.179Z,8.63
2023-10-27T15:14:10.965Z,11.05
2023-10-27T15:16:38.549Z,14.82
2023-10-27T15:19:05.918Z,13.25
2023-10-27T15:21:33.366Z,9.43
2023-10-27T15:24:00.674Z,10.32
2023-10-27T15:26:27.929Z,10.35
2023-10-27T15:28:55.301Z,12.20
2023-10-27T15:31:24.032Z,19.95
2023-10-27T15:33:51.234Z,19.42
2023-10-27T15:36:18.484Z,18.58
2023-10-27T15:38:49.480Z,20.83
2023-10-27T15:41:29.664Z,32.35
2023-10-27T15:43:57.780Z,30.90
2023-10-27T15:46:25.036Z,33.45
2023-10-27T15:48:52.286Z,22.67
2023-10-27T15:51:20.625Z,19.83
2023-10-27T15:53:49.545Z,13.63
2023-10-27T15:56:17.885Z,19.95
2023-10-27T15:58:45.160Z,13.50
2023-10-27T16:01:13.638Z,14.40
2023-10-27T16:03:40.894Z,12.85
2023-10-27T16:06:08.286Z,12.35
2023-10-27T16:08:35.459Z,11.95
2023-10-27T16:11:03.637Z,12.75
2023-10-27T16:13:30.888Z,16.13
2023-10-27T16:15:58.114Z,13.70
2023-10-27T16:18:25.613Z,13.95
2023-10-27T16:20:52.976Z,17.08
2023-10-27T16:23:20.787Z,19.65
2023-10-27T16:25:48.045Z,22.23
2023-10-27T16:28:15.425Z,20.33
2023-10-27T16:30:42.860Z,18.52
2023-10-27T16:33:10.138Z,16.67
2023-10-27T16:35:37.385Z,13.88
2023-10-27T16:38:04.684Z,17.13
2023-10-27T16:40:33.451Z,12.02
2023-10-27T16:43:01.050Z,14.48
2023-10-27T16:45:28.237Z,13.63
2023-10-27T16:47:55.651Z,11.00
2023-10-27T16:50:24.634Z,16.52
2023-10-27T16:52:52.803Z,14.30
2023-10-27T16:55:20.184Z,13.45
2023-10-27T16:57:49.108Z,8.35
2023-10-27T17:00:17.874Z,10.88
2023-10-27T17:02:46.665Z,11.43
2023-10-27T17:05:16.627Z,6.25
2023-10-27T17:07:44.039Z,3.47
2023-10-27T17:10:11.645Z,3.03
2023-10-27T17:12:38.944Z,3.53
2023-10-27T17:15:06.978Z,3.50
2023-10-27T17:17:34.330Z,3.90
2023-10-27T17:20:13.725Z,4.38
2023-10-27T17:22:44.633Z,5.85
2023-10-27T17:25:12.172Z,4.80
2023-10-27T17:27:39.464Z,5.82
2023-10-27T17:30:07.412Z,3.97
2023-10-27T17:32:36.889Z,3.10
2023-10-27T17:35:04.181Z,2.22
2023-10-27T17:37:32.526Z,3.03
2023-10-27T17:40:00.317Z,3.15
2023-10-27T17:42:34.569Z,2.53
2023-10-27T17:45:02.043Z,3.50
2023-10-27T17:47:29.421Z,4.20
2023-10-27T17:49:57.930Z,4.10
2023-10-27T17:52:25.375Z,3.72
2023-10-27T17:54:53.060Z,3.30
2023-10-27T17:57:25.005Z,3.55
2023-10-27T17:59:52.551Z,3.40
2023-10-27T18:02:21.137Z,4.88
2023-10-27T18:04:51.402Z,5.95
2023-10-27T18:07:19.624Z,6.43
2023-10-27T18:09:46.999Z,3.30
2023-10-27T18:12:14.631Z,4.10
2023-10-27T18:14:41.864Z,4.15
2023-10-27T18:17:10.610Z,6.85
2023-10-27T18:19:39.935Z,8.88
2023-10-27T18:22:07.485Z,10.38
2023-10-27T18:24:35.656Z,9.13
2023-10-27T18:27:03.118Z,8.85
2023-10-27T18:29:31.255Z,8.98
2023-10-27T18:31:59.585Z,8.75
2023-10-27T18:34:26.942Z,6.03
2023-10-27T18:36:54.807Z,6.25
2023-10-27T18:39:24.477Z,4.90
2023-10-27T18:41:51.673Z,4.35
2023-10-27T18:44:19.343Z,4.15
2023-10-27T18:46:47.218Z,5.22
2023-10-27T18:49:14.471Z,12.85
2023-10-27T18:51:44.082Z,7.60
2023-10-27T18:54:17.024Z,8.90
2023-10-27T18:56:47.966Z,8.63
2023-10-27T18:59:17.507Z,4.32
2023-10-27T19:01:45.211Z,4.22
2023-10-27T19:04:14.816Z,4.82
2023-10-27T19:06:43.577Z,5.80
2023-10-27T19:09:12.459Z,7.15
2023-10-27T19:11:40.552Z,7.32
2023-10-27T19:14:07.774Z,3.30
2023-10-27T19:16:37.093Z,4.13
2023-10-27T19:19:04.666Z,5.10
2023-10-27T19:21:33.280Z,5.13
2023-10-27T19:24:02.086Z,4.78
2023-10-27T19:26:29.689Z,8.88
2023-10-27T19:28:57.261Z,5.45
2023-10-27T19:31:28.593Z,9.13
2023-10-27T19:33:57.056Z,4.50
2023-10-27T19:36:25.536Z,4.65
2023-10-27T19:38:52.913Z,6.55
2023-10-27T19:41:21.385Z,7.43
2023-10-27T19:43:49.964Z,10.48
2023-10-27T19:46:21.901Z,11.50
2023-10-27T19:48:49.456Z,10.23
2023-10-27T19:51:17.658Z,8.00
2023-10-27T19:53:46.580Z,4.75
2023-10-27T19:56:15.671Z,3.83
2023-10-27T19:58:43.269Z,4.70
2023-10-27T20:01:11.706Z,5.72
2023-10-27T20:03:39.675Z,5.95
2023-10-27T20:06:08.614Z,4.70
2023-10-27T20:08:37.426Z,6.85
2023-10-27T20:11:11.328Z,2.50
2023-10-27T20:13:38.854Z,2.72
2023-10-27T20:16:06.808Z,2.70
2023-10-27T20:18:34.176Z,3.33
2023-10-27T20:21:01.732Z,3.03
2023-10-27T20:23:29.174Z,3.45
2023-10-27T20:26:00.605Z,5.10
2023-10-27T20:28:27.902Z,4.53
2023-10-27T20:30:58.770Z,4.90
2023-10-27T20:33:26.192Z,6.15
2023-10-27T20:35:54.509Z,5.88
2023-10-27T20:38:22.670Z,6.85
2023-10-27T20:40:51.473Z,4.95
2023-10-27T20:43:19.919Z,5.55
2023-10-27T20:45:48.289Z,5.45
2023-10-27T20:48:15.643Z,4.70
2023-10-27T20:50:42.901Z,6.50
2023-10-27T20:53:10.072Z,5.90
2023-10-27T20:55:38.209Z,5.18
2023-10-27T20:58:06.177Z,6.05
2023-10-27T21:00:33.623Z,6.32
2023-10-27T21:03:04.872Z,7.40
2023-10-27T21:05:35.328Z,4.43
2023-10-27T21:08:02.839Z,6.20
2023-10-27T21:10:30.574Z,4.63
2023-10-27T21:12:57.853Z,4.40
2023-10-27T21:15:25.050Z,4.82
2023-10-27T21:17:52.282Z,4.00
2023-10-27T21:20:19.617Z,3.85
2023-10-27T21:22:46.950Z,3.40
2023-10-27T21:25:14.220Z,6.85
2023-10-27T21:27:41.434Z,3.65
2023-10-27T21:30:08.922Z,3.53
2023-10-27T21:32:37.241Z,5.65
2023-10-27T21:35:05.659Z,6.82
2023-10-27T21:37:33.017Z,7.03
2023-10-27T21:40:00.242Z,7.82
2023-10-27T21:42:27.606Z,4.90
2023-10-27T21:44:54.838Z,3.45
2023-10-27T21:47:22.088Z,4.10
2023-10-27T21:49:49.581Z,8.85
2023-10-27T21:52:16.927Z,3.45
2023-10-27T21:54:44.102Z,5.75
2023-10-27T21:57:11.993Z,3.40
2023-10-27T21:59:44.374Z,2.20
2023-10-27T22:02:11.750Z,1.60
2023-10-27T22:04:39.118Z,1.40
2023-10-27T22:07:08.030Z,1.70
2023-10-27T22:09:36.589Z,1.70
2023-10-27T22:12:05.338Z,2.53
2023-10-27T22:14:34.355Z,1.60
2023-10-27T22:17:03.744Z,1.83
2023-10-27T22:19:31.349Z,1.67
2023-10-27T22:21:58.843Z,4.20
2023-10-27T22:24:27.454Z,3.03
2023-10-27T22:26:56.619Z,2.90
2023-10-27T22:29:23.969Z,2.58
2023-10-27T22:31:51.230Z,1.75
2023-10-27T22:34:18.817Z,3.10
2023-10-27T22:36:46.423Z,1.60
2023-10-27T22:39:13.624Z,1.30
2023-10-27T22:41:40.860Z,1.50
2023-10-27T22:44:08.817Z,3.78
2023-10-27T22:46:36.169Z,6.10
2023-10-27T22:49:03.736Z,4.15
2023-10-27T22:51:31.621Z,4.47
2023-10-27T22:53:58.860Z,1.85
2023-10-27T22:56:26.641Z,2.95
2023-10-27T22:58:53.998Z,2.92
2023-10-27T23:01:22.370Z,1.45
2023-10-27T23:03:50.078Z,1.50
2023-10-27T23:06:17.341Z,2.05
2023-10-27T23:08:44.563Z,2.00
2023-10-27T23:11:15.276Z,1.98
2023-10-27T23:13:44.153Z,2.00
2023-10-27T23:16:11.593Z,1.58
2023-10-27T23:18:41.790Z,1.40
2023-10-27T23:21:09.306Z,2.03
2023-10-27T23:23:37.379Z,2.15
2023-10-27T23:26:07.287Z,1.60
2023-10-27T23:28:35.120Z,1.85
2023-10-27T23:31:06.531Z,1.83
2023-10-27T23:33:33.913Z,3.42
2023-10-27T23:36:01.498Z,5.30
2023-10-27T23:38:32.227Z,4.60
2023-10-27T23:41:05.208Z,3.85
2023-10-27T23:43:32.896Z,11.32
2023-10-27T23:46:00.434Z,6.03
2023-10-27T23:48:28.741Z,10.88
2023-10-27T23:50:56.410Z,5.70
2023-10-27T23:53:29.680Z,3.30
2023-10-27T23:55:57.018Z,6.07
2023-10-27T23:58:24.622Z,3.55
